Time;durP1;ratioP1;P1;durP2;ratioP2;P2;SDS_P1;SDS_P2;PMS_P1;PMS_P2;Temp;Humidity;BMP_temperature;BMP_pressure;BME280_temperature;BME280_humidity;BME280_pressure;Samples;Min_cycle;Max_cycle;Signal;HPM_P1;HPM_P2
2021/05/30 05:21:56;;;;;;;4.88;4.47;;;12.30;99.90;;;;;;4953739;23;20534;-73
2021/05/30 05:24:22;;;;;;;5.32;4.82;;;12.30;99.90;;;;;;4880921;29;20596;-73
2021/05/30 05:26:48;;;;;;;5.40;4.63;;;12.40;99.90;;;;;;4879481;29;20233;-73
2021/05/30 05:29:13;;;;;;;5.20;4.60;;;12.50;99.90;;;;;;4879564;29;20250;-71
2021/05/30 05:31:40;;;;;;;5.22;4.75;;;12.50;99.90;;;;;;4879453;29;20253;-72
2021/05/30 05:34:05;;;;;;;5.05;4.57;;;12.60;99.90;;;;;;4879681;29;20181;-73
2021/05/30 05:36:31;;;;;;;5.35;4.47;;;12.60;99.90;;;;;;4879308;29;20269;-73
2021/05/30 05:38:57;;;;;;;5.47;4.97;;;12.50;99.90;;;;;;4877981;29;20175;-71
2021/05/30 05:41:22;;;;;;;5.18;4.68;;;12.60;99.90;;;;;;4879320;29;20673;-72
2021/05/30 05:43:48;;;;;;;4.40;4.00;;;12.60;99.90;;;;;;4879350;29;20182;-72
2021/05/30 05:46:14;;;;;;;5.15;4.75;;;12.60;99.90;;;;;;4877956;29;20222;-72
2021/05/30 05:48:39;;;;;;;4.63;4.15;;;12.70;99.90;;;;;;4876582;29;20174;-72
2021/05/30 05:51:05;;;;;;;5.35;4.57;;;12.80;99.90;;;;;;4878977;29;20209;-71
2021/05/30 05:53:31;;;;;;;4.75;4.35;;;12.80;99.90;;;;;;4877979;29;20370;-73
2021/05/30 05:55:57;;;;;;;5.05;4.55;;;12.70;99.90;;;;;;4879348;29;20194;-74
2021/05/30 05:58:23;;;;;;;6.97;4.65;;;12.90;99.90;;;;;;4879175;29;20170;-73
2021/05/30 06:00:48;;;;;;;9.00;5.65;;;13.30;99.90;;;;;;4879275;29;20213;-72
2021/05/30 06:03:14;;;;;;;5.10;4.60;;;12.90;99.90;;;;;;4879100;29;20219;-73
2021/05/30 06:05:40;;;;;;;6.00;4.95;;;13.10;99.90;;;;;;4878597;29;20816;-72
2021/05/30 06:08:06;;;;;;;6.40;4.97;;;13.20;99.90;;;;;;4879042;29;20177;-72
2021/05/30 06:10:32;;;;;;;5.10;4.28;;;13.30;99.90;;;;;;4879075;29;20281;-71
2021/05/30 06:13:02;;;;;;;6.25;4.90;;;13.40;99.90;;;;;;4879149;29;20203;-72
2021/05/30 06:15:29;;;;;;;4.70;4.22;;;13.50;99.90;;;;;;4878983;29;20285;-71
2021/05/30 06:17:57;;;;;;;5.32;4.25;;;13.60;99.90;;;;;;4878900;29;20660;-71
2021/05/30 06:20:25;;;;;;;5.13;4.60;;;13.60;99.90;;;;;;4876763;29;20252;-71
2021/05/30 06:22:52;;;;;;;5.03;4.47;;;13.60;99.90;;;;;;4878980;29;20478;-72
2021/05/30 06:25:18;;;;;;;5.90;4.65;;;13.60;99.90;;;;;;4878702;29;20214;-72
2021/05/30 06:27:43;;;;;;;4.75;4.20;;;13.70;99.90;;;;;;4878612;29;20181;-73
2021/05/30 06:30:10;;;;;;;4.38;3.97;;;13.80;99.90;;;;;;4878765;29;20617;-73
2021/05/30 06:32:35;;;;;;;5.25;4.45;;;13.80;99.90;;;;;;4878610;29;20568;-72
2021/05/30 06:35:02;;;;;;;5.47;4.47;;;14.00;99.90;;;;;;4877679;29;20190;-73
2021/05/30 06:37:28;;;;;;;6.30;4.75;;;14.00;99.90;;;;;;4878749;29;20178;-73
2021/05/30 06:39:53;;;;;;;5.15;4.43;;;14.10;99.90;;;;;;4878449;29;20618;-74
2021/05/30 06:42:19;;;;;;;5.05;3.97;;;14.10;99.90;;;;;;4878643;29;20690;-73
2021/05/30 06:44:45;;;;;;;4.80;4.32;;;14.10;99.90;;;;;;4878270;29;20209;-73
2021/05/30 06:47:12;;;;;;;5.15;4.30;;;14.20;99.90;;;;;;4878436;29;20174;-73
2021/05/30 06:49:37;;;;;;;6.03;4.65;;;14.30;99.90;;;;;;4879351;29;20185;-73
2021/05/30 06:52:04;;;;;;;5.13;4.60;;;14.50;99.90;;;;;;4880771;29;20197;-73
2021/05/30 06:54:29;;;;;;;5.35;4.85;;;14.70;99.90;;;;;;4878131;29;20481;-73
2021/05/30 06:56:55;;;;;;;5.35;4.78;;;14.80;99.90;;;;;;4878401;29;20194;-73
2021/05/30 06:59:21;;;;;;;4.90;4.40;;;14.90;99.90;;;;;;4878528;29;20309;-73
2021/05/30 07:01:46;;;;;;;6.13;4.90;;;15.00;99.90;;;;;;4878062;29;20190;-73
2021/05/30 07:04:12;;;;;;;6.00;5.32;;;15.20;99.90;;;;;;4878299;29;20182;-73
2021/05/30 07:06:38;;;;;;;5.72;4.80;;;15.40;99.90;;;;;;4877863;29;20201;-72
2021/05/30 07:09:06;;;;;;;4.43;3.60;;;15.50;99.90;;;;;;4878311;29;20197;-73
2021/05/30 07:11:32;;;;;;;5.82;4.30;;;15.60;99.90;;;;;;4878180;29;20206;-73
2021/05/30 07:13:57;;;;;;;5.63;3.97;;;15.60;99.90;;;;;;4878266;29;20170;-73
2021/05/30 07:16:23;;;;;;;4.90;4.50;;;15.80;99.90;;;;;;4876830;29;20501;-73
2021/05/30 07:18:49;;;;;;;4.68;4.07;;;16.10;99.90;;;;;;4877806;29;20229;-73
2021/05/30 07:21:15;;;;;;;5.38;4.15;;;16.40;99.90;;;;;;4877348;29;20243;-73
2021/05/30 07:23:41;;;;;;;5.03;4.53;;;16.70;99.90;;;;;;4877515;29;20708;-73
2021/05/30 07:26:07;;;;;;;5.35;4.07;;;16.90;99.90;;;;;;4877911;29;20695;-73
2021/05/30 07:28:32;;;;;;;4.80;4.40;;;17.10;99.90;;;;;;4876775;29;20273;-72
2021/05/30 07:30:58;;;;;;;3.70;3.40;;;17.20;99.90;;;;;;4878007;29;20202;-73
2021/05/30 07:33:24;;;;;;;4.28;3.90;;;17.20;97.40;;;;;;4878082;29;20178;-73
2021/05/30 07:35:50;;;;;;;3.83;3.38;;;17.20;96.80;;;;;;4877564;29;20566;-73
2021/05/30 07:38:16;;;;;;;3.92;3.45;;;17.40;97.80;;;;;;4878203;29;20237;-73
2021/05/30 07:40:42;;;;;;;3.38;3.03;;;17.60;93.20;;;;;;4878080;29;20205;-73
2021/05/30 07:43:07;;;;;;;3.80;3.40;;;17.60;93.60;;;;;;4884817;29;20196;-73
2021/05/30 07:45:33;;;;;;;3.83;3.38;;;17.60;85.70;;;;;;4915370;29;20219;-72
2021/05/30 07:48:00;;;;;;;3.47;3.17;;;17.70;89.70;;;;;;4917470;29;20204;-73
2021/05/30 07:50:26;;;;;;;3.83;3.42;;;17.70;89.10;;;;;;4918933;29;20663;-72
2021/05/30 07:52:52;;;;;;;4.70;3.30;;;17.80;90.80;;;;;;4917721;29;20177;-72
2021/05/30 07:55:20;;;;;;;3.17;2.80;;;17.90;85.60;;;;;;4919241;29;20207;-73
2021/05/30 07:57:49;;;;;;;3.42;2.63;;;18.10;81.00;;;;;;4917474;29;20273;-73
2021/05/30 08:00:16;;;;;;;3.40;2.75;;;18.30;82.40;;;;;;4918753;29;20196;-73
2021/05/30 08:02:44;;;;;;;3.22;2.72;;;18.50;80.00;;;;;;4912088;29;20217;-72
2021/05/30 08:05:13;;;;;;;3.50;2.80;;;18.60;74.50;;;;;;4906432;29;20224;-72
2021/05/30 08:07:39;;;;;;;5.70;5.20;;;18.70;75.60;;;;;;4905034;29;20247;-71
2021/05/30 08:10:06;;;;;;;76.63;71.97;;;18.80;69.60;;;;;;4904937;29;20434;-72
2021/05/30 08:12:32;;;;;;;36.17;33.83;;;18.70;69.20;;;;;;4906339;29;20208;-72
2021/05/30 08:14:58;;;;;;;4.45;4.05;;;18.60;65.20;;;;;;4907094;29;20225;-70
2021/05/30 08:17:23;;;;;;;3.90;3.03;;;18.50;70.00;;;;;;4906950;29;20648;-70
2021/05/30 08:19:50;;;;;;;3.10;2.80;;;18.70;70.40;;;;;;4906199;29;20422;-72
2021/05/30 08:22:16;;;;;;;3.47;2.97;;;18.80;68.30;;;;;;4905920;29;20667;-72
2021/05/30 08:24:43;;;;;;;4.70;3.25;;;18.80;65.20;;;;;;4906757;29;20237;-71
2021/05/30 08:27:09;;;;;;;2.90;2.70;;;18.80;69.80;;;;;;4903781;29;20285;-71
2021/05/30 08:29:35;;;;;;;5.28;4.78;;;19.00;66.00;;;;;;4906502;29;20647;-72
2021/05/30 08:32:01;;;;;;;4.50;4.10;;;19.10;67.90;;;;;;4889579;29;20256;-72
2021/05/30 08:34:29;;;;;;;16.65;14.38;;;19.10;61.00;;;;;;4904097;29;20610;-72
2021/05/30 08:36:55;;;;;;;8.10;7.30;;;19.20;60.80;;;;;;4905889;29;20586;-72
2021/05/30 08:39:21;;;;;;;9.32;8.30;;;19.40;62.10;;;;;;4906016;29;20446;-72
2021/05/30 08:41:46;;;;;;;5.55;5.05;;;19.60;64.70;;;;;;4905142;29;20603;-72
2021/05/30 08:44:12;;;;;;;3.27;2.97;;;19.80;56.80;;;;;;4906230;29;20988;-73
2021/05/30 08:46:39;;;;;;;2.65;2.45;;;19.80;55.30;;;;;;4913871;29;20296;-73
2021/05/30 08:49:05;;;;;;;3.67;2.55;;;19.80;56.30;;;;;;4917493;29;20177;-73
2021/05/30 08:51:32;;;;;;;3.83;2.47;;;19.80;56.90;;;;;;4915284;29;20454;-73
2021/05/30 08:53:58;;;;;;;5.50;2.80;;;19.80;58.40;;;;;;4879757;29;20178;-73
2021/05/30 08:56:24;;;;;;;3.92;3.58;;;19.70;56.20;;;;;;4879700;29;20225;-72
2021/05/30 08:58:52;;;;;;;17.15;15.57;;;19.60;57.40;;;;;;4891061;29;20196;-74
2021/05/30 09:01:23;;;;;;;3.10;2.80;;;19.40;55.40;;;;;;4901778;29;20200;-73
2021/05/30 09:04:05;;;;;;;2.83;2.47;;;19.20;56.80;;;;;;4889050;29;20181;-72
2021/05/30 09:06:35;;;;;;;3.95;2.95;;;19.00;54.90;;;;;;4886463;29;20273;-72
2021/05/30 09:09:02;;;;;;;3.25;2.97;;;18.90;57.50;;;;;;4883773;29;20177;-72
2021/05/30 09:11:40;;;;;;;3.63;2.73;;;22.50;67.50;;;;;;4898241;29;20425;-73
2021/05/30 09:14:09;;;;;;;2.75;2.55;;;;;;;;;;4897415;29;20184;-73
2021/05/30 09:17:04;;;;;;;2.70;2.35;;;24.60;53.40;;;;;;4898486;29;20285;-72
2021/05/30 09:19:42;;;;;;;3.15;2.45;;;26.60;49.30;;;;;;4898012;29;20174;-73
2021/05/30 09:22:15;;;;;;;2.65;2.22;;;28.00;46.10;;;;;;4898604;29;20228;-73
2021/05/30 09:25:01;;;;;;;2.25;2.05;;;30.10;39.50;;;;;;4910568;29;20243;-73
2021/05/30 09:27:27;;;;;;;2.92;2.53;;;;;;;;;;4916844;29;20267;-73
2021/05/30 09:42:49;;;;;;;2.63;2.42;;;23.30;44.20;;;;;;5069094;28;20581;-73
2021/05/30 09:45:15;;;;;;;2.53;2.33;;;23.00;44.30;;;;;;5069111;28;20227;-72
2021/05/30 09:47:45;;;;;;;2.75;2.30;;;22.90;44.80;;;;;;5068976;28;20591;-71
2021/05/30 09:50:17;;;;;;;23.52;19.17;;;22.80;42.90;;;;;;5068780;28;20199;-71
2021/05/30 09:52:44;;;;;;;2.95;2.67;;;22.70;43.70;;;;;;5068422;28;20209;-71
2021/05/30 09:55:13;;;;;;;4.00;3.70;;;22.80;43.50;;;;;;5069117;28;20191;-72
2021/05/30 09:57:39;;;;;;;4.93;3.20;;;22.90;44.60;;;;;;5068875;28;20199;-71
2021/05/30 10:00:19;;;;;;;5.55;3.33;;;23.00;45.10;;;;;;5067554;28;20198;-70
2021/05/30 10:02:45;;;;;;;3.00;2.80;;;22.90;44.60;;;;;;5068695;28;20286;-71
2021/05/30 10:05:11;;;;;;;4.28;2.92;;;25.10;44.80;;;;;;5068561;28;20237;-71
2021/05/30 10:07:38;;;;;;;3.65;3.35;;;24.90;41.30;;;;;;5051081;28;20234;-71
2021/05/30 10:10:04;;;;;;;5.65;2.75;;;24.20;41.60;;;;;;5048241;28;20195;-71
2021/05/30 10:12:30;;;;;;;3.25;2.95;;;23.70;41.80;;;;;;5047326;28;20669;-70
2021/05/30 10:14:56;;;;;;;4.00;3.60;;;23.30;42.40;;;;;;5048685;28;20195;-70
2021/05/30 10:17:22;;;;;;;4.47;3.42;;;22.90;45.00;;;;;;5048731;28;20627;-70
2021/05/30 10:19:50;;;;;;;5.28;4.88;;;22.40;42.90;;;;;;5048457;28;20298;-70
2021/05/30 10:22:19;;;;;;;4.18;3.85;;;22.00;45.60;;;;;;5048541;28;20721;-70
2021/05/30 10:24:46;;;;;;;5.10;4.03;;;21.90;46.20;;;;;;5060719;28;20171;-69
2021/05/30 10:27:11;;;;;;;4.03;3.22;;;22.00;46.80;;;;;;5048995;28;20183;-68
2021/05/30 10:29:38;;;;;;;4.45;4.15;;;22.00;44.80;;;;;;5045831;28;20176;-71
2021/05/30 10:32:25;;;;;;;30.02;26.83;;;22.00;45.50;;;;;;5048761;28;20680;-70
2021/05/30 10:35:09;;;;;;;4.25;3.67;;;22.00;46.70;;;;;;5050028;28;20241;-70
2021/05/30 10:37:52;;;;;;;12.02;10.80;;;22.50;47.40;;;;;;5065768;28;20178;-71
2021/05/30 10:40:20;;;;;;;7.75;5.25;;;22.90;48.70;;;;;;5065419;28;20206;-70
2021/05/30 10:45:37;;;;;;;9.32;8.43;;;23.00;48.00;;;;;;5064663;28;20203;-73
2021/05/30 10:48:03;;;;;;;3.17;2.85;;;23.10;48.30;;;;;;5082337;28;20195;-72
2021/05/30 10:50:37;;;;;;;19.83;17.88;;;24.50;46.20;;;;;;5074090;28;20233;-71
2021/05/30 10:53:12;;;;;;;11.35;9.20;;;26.10;45.40;;;;;;5068041;28;20532;-72
2021/05/30 10:55:38;;;;;;;11.10;7.30;;;;;;;;;;5053978;28;20195;-72
2021/05/30 10:58:16;;;;;;;4.20;3.20;;;30.60;40.10;;;;;;5117612;27;20321;-71
2021/05/30 11:00:45;;;;;;;5.70;3.88;;;30.80;35.20;;;;;;5108900;28;20289;-71
2021/05/30 11:03:13;;;;;;;2.72;2.50;;;30.50;37.40;;;;;;5126223;28;20188;-71
2021/05/30 11:05:52;;;;;;;5.80;4.07;;;31.10;36.10;;;;;;5114736;28;20688;-70
2021/05/30 11:08:29;;;;;;;2.58;2.38;;;31.60;33.40;;;;;;5112630;28;20193;-70
2021/05/30 11:11:29;;;;;;;3.78;2.60;;;30.90;33.70;;;;;;5117716;27;20682;-72
2021/05/30 13:09:59;;;;;;;3.60;2.50;;;21.80;43.10;;;;;;5088681;27;20575;-70
2021/05/30 13:12:43;;;;;;;2.47;2.28;;;21.60;43.40;;;;;;5075316;28;20723;-71
2021/05/30 13:15:13;;;;;;;2.70;2.50;;;;;;;;;;5076322;28;20603;-71
2021/05/30 13:17:41;;;;;;;3.17;2.97;;;;;;;;;;5079311;28;20159;-71
2021/05/30 13:34:15;;;;;;;2.95;2.65;;;21.10;45.50;;;;;;5109080;27;21109;-71
2021/05/30 13:40:21;;;;;;;2.35;2.05;;;27.70;37.50;;;;;;5117843;27;20355;-71
2021/05/30 13:42:47;;;;;;;2.45;2.25;;;28.50;36.90;;;;;;5092974;28;20574;-71
2021/05/30 13:45:13;;;;;;;2.40;2.20;;;31.00;37.10;;;;;;5101303;28;20555;-72
2021/05/30 13:47:38;;;;;;;2.53;2.33;;;33.50;29.60;;;;;;5109531;28;20215;-72
2021/05/30 13:50:04;;;;;;;3.03;2.83;;;33.70;30.90;;;;;;5109285;28;20643;-71
2021/05/30 13:52:30;;;;;;;2.95;2.60;;;33.70;28.80;;;;;;5108363;28;20938;-71
2021/05/30 13:54:56;;;;;;;3.22;2.30;;;32.50;29.00;;;;;;5109243;28;20162;-71
2021/05/30 13:57:21;;;;;;;2.83;2.20;;;30.60;29.70;;;;;;5109160;28;20440;-69
2021/05/30 13:59:47;;;;;;;2.63;2.30;;;28.70;31.60;;;;;;5109107;28;20212;-71
2021/05/30 14:02:13;;;;;;;4.40;2.40;;;27.30;33.50;;;;;;5109331;28;20174;-71
2021/05/30 14:04:38;;;;;;;2.53;2.30;;;26.10;34.70;;;;;;5108796;28;20541;-72
2021/05/30 14:07:04;;;;;;;2.60;2.40;;;25.00;36.40;;;;;;5097705;28;20660;-71
2021/05/30 14:09:30;;;;;;;2.08;1.98;;;24.10;37.50;;;;;;5086418;28;20237;-69
2021/05/30 14:11:56;;;;;;;2.40;2.10;;;23.10;39.60;;;;;;5086293;28;20229;-72
2021/05/30 14:14:21;;;;;;;2.40;2.20;;;22.70;41.10;;;;;;5086905;28;20163;-72
2021/05/30 14:16:47;;;;;;;2.40;2.20;;;22.30;42.50;;;;;;5086524;28;20700;-72
2021/05/30 14:19:13;;;;;;;2.80;2.60;;;22.00;43.50;;;;;;5087934;28;20210;-72
2021/05/30 14:21:39;;;;;;;3.83;2.10;;;21.50;43.60;;;;;;5086635;28;20212;-71
2021/05/30 14:24:05;;;;;;;2.78;2.33;;;21.30;44.90;;;;;;5088310;28;20163;-71
2021/05/30 14:26:31;;;;;;;2.65;2.45;;;21.00;44.90;;;;;;5087038;28;20190;-72
2021/05/30 14:28:57;;;;;;;2.30;2.10;;;20.60;45.60;;;;;;5085103;28;20171;-72
2021/05/30 14:31:23;;;;;;;3.80;2.17;;;20.30;46.60;;;;;;5095475;28;20230;-72
2021/05/30 14:33:48;;;;;;;4.03;2.40;;;20.20;46.60;;;;;;5088413;28;20179;-72
2021/05/30 14:36:14;;;;;;;2.70;2.50;;;20.10;47.80;;;;;;5085837;28;20638;-72
2021/05/30 14:38:40;;;;;;;2.65;2.45;;;20.20;47.80;;;;;;5084946;28;20226;-72
2021/05/30 14:41:06;;;;;;;3.45;2.40;;;20.60;48.50;;;;;;5087455;28;20286;-72
2021/05/30 14:43:32;;;;;;;2.42;2.22;;;;;;;;;;5087094;28;20174;-71
2021/05/30 14:45:58;;;;;;;2.40;2.20;;;;;;;;;;5087600;28;20183;-71
2021/05/30 14:56:29;;;;;;;3.30;3.00;;;20.80;49.50;;;;;;5106093;27;20971;-69
2021/05/30 14:58:54;;;;;;;3.20;2.90;;;20.80;50.40;;;;;;5098083;28;20194;-69
2021/05/30 15:01:20;;;;;;;2.95;2.70;;;;;;;;;;5097078;28;20674;-67
2021/05/30 15:06:12;;;;;;;3.25;3.00;;;20.30;50.90;;;;;;5109095;27;20379;-71
2021/05/30 15:08:37;;;;;;;3.28;3.00;;;20.20;52.60;;;;;;5108355;28;20568;-72
2021/05/30 15:11:03;;;;;;;3.17;2.83;;;20.20;52.80;;;;;;5111645;28;20193;-70
2021/05/30 15:13:29;;;;;;;3.35;3.15;;;20.10;52.70;;;;;;5119962;28;20552;-73
2021/05/30 15:15:56;;;;;;;3.30;3.00;;;20.40;53.60;;;;;;5118900;28;20209;-73
2021/05/30 15:18:22;;;;;;;2.60;2.40;;;20.80;57.30;;;;;;5118992;27;20158;-70
2021/05/30 15:20:48;;;;;;;3.05;2.42;;;;;;;;;;5111536;28;20202;-70
2021/05/30 15:23:15;;;;;;;2.65;2.22;;;21.30;51.70;;;;;;5125155;27;20178;-70
2021/05/30 15:28:15;;;;;;;3.42;2.92;;;21.30;51.60;;;;;;5126482;27;20908;-68
2021/05/30 15:30:42;;;;;;;2.92;2.72;;;21.00;51.50;;;;;;5125481;28;21021;-71
2021/05/30 15:33:08;;;;;;;2.85;2.58;;;20.80;52.40;;;;;;5127996;27;20181;-71
2021/05/30 15:35:33;;;;;;;3.35;3.03;;;20.50;52.00;;;;;;5129254;27;20192;-74
2021/05/30 15:37:59;;;;;;;4.25;3.25;;;20.40;53.70;;;;;;5127950;27;20185;-73
2021/05/30 15:40:26;;;;;;;3.17;2.95;;;20.60;53.80;;;;;;5128115;27;20197;-70
2021/05/30 15:42:52;;;;;;;2.85;2.65;;;;;;;;;;5123755;27;20173;-71
2021/05/30 15:45:18;;;;;;;3.60;2.65;;;;;;;;;;5125923;28;20596;-70
2021/05/30 15:47:44;;;;;;;3.67;3.15;;;20.80;51.00;;;;;;5125921;28;20689;-71
2021/05/30 15:50:10;;;;;;;3.25;2.95;;;20.50;50.70;;;;;;5127223;28;20208;-70
2021/05/30 15:52:36;;;;;;;3.45;3.15;;;20.00;52.40;;;;;;5127685;27;20222;-70
2021/05/30 15:55:02;;;;;;;2.97;2.78;;;;;;;;;;5126914;27;20205;-70
2021/05/30 15:57:28;;;;;;;3.85;2.70;;;;;;;;;;5128239;28;20707;-70
2021/05/30 15:59:54;;;;;;;3.00;2.80;;;19.70;53.00;;;;;;5123912;28;20177;-71
2021/05/30 16:02:20;;;;;;;3.00;2.80;;;19.70;53.80;;;;;;5127649;27;20180;-71
2021/05/30 16:04:45;;;;;;;3.35;3.05;;;19.00;54.80;;;;;;5124881;28;20173;-73
2021/05/30 16:07:11;;;;;;;4.20;3.10;;;;;;;;;;5124717;28;20438;-73
2021/05/30 16:09:37;;;;;;;3.35;3.05;;;;;;;;;;5126854;28;20526;-72
2021/05/30 16:14:42;;;;;;;3.65;3.17;;;;;;;;;;5066474;28;20611;-71
